createdAt,value
2018-07-31T00:01:24.380Z,21.20
2018-07-31T00:03:53.060Z,21.20
2018-07-31T00:06:24.103Z,21.10
2018-07-31T00:08:54.211Z,21.10
2018-07-31T00:11:22.357Z,21.10
2018-07-31T00:13:50.468Z,21.10
2018-07-31T00:16:18.028Z,21.00
2018-07-31T00:18:45.581Z,21.00
2018-07-31T00:21:13.292Z,21.00
2018-07-31T00:23:40.846Z,21.00
2018-07-31T00:28:37.012Z,20.90
2018-07-31T00:31:04.727Z,20.90
2018-07-31T00:33:33.105Z,20.90
2018-07-31T00:36:00.848Z,20.90
2018-07-31T00:38:28.426Z,20.80
2018-07-31T00:40:55.965Z,20.80
2018-07-31T00:43:23.489Z,20.70
2018-07-31T00:45:51.382Z,20.70
2018-07-31T00:50:46.585Z,20.60
2018-07-31T00:55:41.713Z,20.60
2018-07-31T00:58:09.301Z,20.50
2018-07-31T01:00:36.903Z,20.50
2018-07-31T01:03:04.617Z,20.40
2018-07-31T01:07:59.694Z,20.30
2018-07-31T01:10:27.327Z,20.20
2018-07-31T01:12:54.871Z,20.20
2018-07-31T01:17:49.932Z,20.10
2018-07-31T01:20:18.447Z,20.10
2018-07-31T01:22:46.011Z,20.10
2018-07-31T01:25:13.549Z,20.10
2018-07-31T01:27:41.125Z,20.10
2018-07-31T01:30:08.736Z,20.10
2018-07-31T01:32:36.304Z,20.10
2018-07-31T01:39:58.841Z,20.10
2018-07-31T01:42:26.388Z,20.10
2018-07-31T01:44:54.017Z,20.00
2018-07-31T01:47:21.978Z,20.00
2018-07-31T01:49:49.518Z,19.90
2018-07-31T01:52:17.122Z,19.90
2018-07-31T01:54:44.988Z,19.80
2018-07-31T01:57:12.560Z,19.70
2018-07-31T01:59:40.124Z,19.60
2018-07-31T02:02:07.685Z,19.50
2018-07-31T02:04:35.304Z,19.50
2018-07-31T02:07:02.982Z,19.50
2018-07-31T02:09:30.702Z,19.40
2018-07-31T02:11:58.260Z,19.40
2018-07-31T02:14:25.798Z,19.30
2018-07-31T02:16:53.338Z,19.30
2018-07-31T02:19:21.426Z,19.30
2018-07-31T02:21:48.950Z,19.20
2018-07-31T02:26:43.972Z,19.20
2018-07-31T02:29:11.520Z,19.20
2018-07-31T02:31:39.056Z,19.20
2018-07-31T02:34:06.575Z,19.20
2018-07-31T02:36:34.364Z,19.20
2018-07-31T02:39:01.996Z,19.20
2018-07-31T02:43:57.049Z,19.10
2018-07-31T02:46:24.655Z,19.10
2018-07-31T02:48:53.357Z,19.10
2018-07-31T02:51:21.452Z,19.00
2018-07-31T02:53:49.030Z,19.00
2018-07-31T02:56:16.557Z,19.00
2018-07-31T02:58:44.113Z,19.00
2018-07-31T03:01:11.689Z,18.90
2018-07-31T03:03:39.228Z,18.80
2018-07-31T03:13:29.259Z,18.60
2018-07-31T03:20:52.757Z,18.60
2018-07-31T03:23:21.007Z,18.70
2018-07-31T03:25:48.545Z,18.70
2018-07-31T03:28:16.160Z,18.70
2018-07-31T03:30:43.647Z,18.60
2018-07-31T03:33:11.173Z,18.60
2018-07-31T03:35:38.711Z,18.60
2018-07-31T03:38:06.236Z,18.60
2018-07-31T03:40:33.790Z,18.70
2018-07-31T03:43:01.396Z,18.70
2018-07-31T03:45:28.948Z,18.70
2018-07-31T03:47:56.494Z,18.70
2018-07-31T03:50:24.072Z,18.70
2018-07-31T03:52:52.666Z,18.70
2018-07-31T03:55:20.960Z,18.60
2018-07-31T03:57:48.486Z,18.60
2018-07-31T04:00:16.299Z,18.60
2018-07-31T04:02:44.007Z,18.60
2018-07-31T04:07:39.150Z,18.50
2018-07-31T04:10:06.709Z,18.40
2018-07-31T04:12:34.424Z,18.50
2018-07-31T04:15:02.010Z,18.70
2018-07-31T04:17:29.532Z,18.90
2018-07-31T04:22:24.738Z,19.30
2018-07-31T04:24:52.980Z,19.40
2018-07-31T04:27:21.170Z,19.50
2018-07-31T04:29:48.827Z,19.50
2018-07-31T04:32:16.387Z,19.40
2018-07-31T04:34:43.946Z,19.10
2018-07-31T04:37:11.506Z,19.00
2018-07-31T04:39:39.137Z,19.10
2018-07-31T04:42:06.722Z,19.20
2018-07-31T04:44:34.362Z,19.30
2018-07-31T04:47:01.999Z,19.30
2018-07-31T04:49:29.771Z,19.40
2018-07-31T04:54:24.814Z,19.60
2018-07-31T04:56:52.487Z,19.70
2018-07-31T04:59:19.973Z,19.60
2018-07-31T05:01:47.831Z,19.60
2018-07-31T05:04:15.378Z,19.50
2018-07-31T05:06:42.907Z,19.50
2018-07-31T05:09:12.093Z,19.50
2018-07-31T05:11:39.662Z,19.50
2018-07-31T05:16:35.314Z,19.50
2018-07-31T05:19:03.167Z,19.40
2018-07-31T05:21:30.729Z,19.50
2018-07-31T05:26:25.812Z,19.60
2018-07-31T05:28:53.361Z,19.70
2018-07-31T05:33:48.743Z,20.00
2018-07-31T05:36:16.379Z,20.10
2018-07-31T05:38:43.962Z,20.20
2018-07-31T05:41:11.574Z,20.40
2018-07-31T05:43:39.128Z,20.50
2018-07-31T05:46:06.779Z,20.60
2018-07-31T05:48:34.387Z,20.70
2018-07-31T05:51:01.959Z,20.70
2018-07-31T05:53:29.522Z,20.80
2018-07-31T06:03:19.597Z,21.10
2018-07-31T06:05:47.206Z,21.10
2018-07-31T06:08:14.783Z,21.20
2018-07-31T06:10:42.310Z,21.40
2018-07-31T06:13:09.893Z,21.40
2018-07-31T06:18:04.988Z,21.40
2018-07-31T06:20:32.521Z,21.40
2018-07-31T06:23:00.089Z,21.50
2018-07-31T06:25:27.717Z,21.60
2018-07-31T06:27:55.208Z,21.60
2018-07-31T06:30:22.764Z,21.70
2018-07-31T06:32:51.339Z,21.80
2018-07-31T06:35:18.920Z,21.90
2018-07-31T06:37:46.446Z,22.00
2018-07-31T06:40:14.012Z,22.00
2018-07-31T06:42:41.590Z,22.10
2018-07-31T06:45:09.172Z,22.20
2018-07-31T06:47:36.688Z,22.20
2018-07-31T06:52:31.873Z,22.40
2018-07-31T06:54:59.478Z,22.50
2018-07-31T06:57:27.017Z,22.60
2018-07-31T06:59:54.608Z,22.70
2018-07-31T07:02:22.662Z,22.70
2018-07-31T07:04:50.808Z,22.80
2018-07-31T07:09:45.807Z,22.90
2018-07-31T07:12:13.435Z,23.00
2018-07-31T07:14:40.983Z,23.10
2018-07-31T07:17:08.527Z,23.10
2018-07-31T07:19:36.100Z,23.20
2018-07-31T07:22:03.710Z,23.30
2018-07-31T07:24:31.249Z,23.30
2018-07-31T07:26:58.770Z,23.40
2018-07-31T07:31:53.826Z,23.60
2018-07-31T07:36:49.399Z,23.70
2018-07-31T07:39:16.978Z,23.80
2018-07-31T07:44:12.022Z,24.00
2018-07-31T07:46:39.628Z,24.10
2018-07-31T07:49:07.657Z,24.20
2018-07-31T07:51:35.230Z,24.30
2018-07-31T07:54:02.915Z,24.40
2018-07-31T07:56:30.420Z,24.40
2018-07-31T07:58:57.950Z,24.50
2018-07-31T08:01:25.681Z,24.60
2018-07-31T08:03:53.241Z,24.70
2018-07-31T08:06:21.616Z,24.70
2018-07-31T08:08:49.204Z,24.80
2018-07-31T08:11:16.766Z,25.00
2018-07-31T08:13:44.346Z,25.00
2018-07-31T08:16:11.916Z,25.10
2018-07-31T08:18:39.516Z,25.20
2018-07-31T08:21:07.109Z,25.20
2018-07-31T08:23:34.655Z,25.40
2018-07-31T08:26:02.192Z,25.40
2018-07-31T08:28:29.738Z,25.50
2018-07-31T08:30:57.319Z,25.60
2018-07-31T08:33:24.850Z,25.70
2018-07-31T08:35:52.860Z,25.80
2018-07-31T08:38:20.752Z,25.90
2018-07-31T08:40:48.317Z,26.00
2018-07-31T08:43:15.860Z,26.10
2018-07-31T08:45:43.674Z,26.20
2018-07-31T08:48:11.255Z,26.20
2018-07-31T08:50:38.844Z,26.40
2018-07-31T08:53:06.397Z,26.50
2018-07-31T08:55:34.441Z,26.60
2018-07-31T08:58:02.079Z,26.70
2018-07-31T09:00:29.608Z,26.80
2018-07-31T09:02:57.270Z,26.90
2018-07-31T09:05:24.825Z,27.00
2018-07-31T09:07:52.370Z,27.00
2018-07-31T09:12:48.109Z,27.20
2018-07-31T09:15:15.713Z,27.30
2018-07-31T09:17:43.277Z,27.40
2018-07-31T09:20:10.911Z,27.50
2018-07-31T09:22:38.513Z,27.60
2018-07-31T09:25:06.110Z,27.70
2018-07-31T09:27:33.635Z,27.80
2018-07-31T09:30:01.263Z,28.00
2018-07-31T09:32:34.489Z,28.10
2018-07-31T09:35:02.030Z,28.20
2018-07-31T09:37:29.609Z,28.20
2018-07-31T09:39:57.175Z,28.30
2018-07-31T09:42:24.876Z,28.50
2018-07-31T09:44:52.465Z,28.60
2018-07-31T09:47:20.015Z,28.70
2018-07-31T09:49:47.593Z,28.90
2018-07-31T09:52:15.141Z,29.10
2018-07-31T09:54:42.755Z,29.20
2018-07-31T09:57:10.413Z,29.20
2018-07-31T09:59:37.966Z,29.40
2018-07-31T10:02:06.009Z,29.60
2018-07-31T10:04:33.533Z,29.80
2018-07-31T10:07:01.675Z,29.90
2018-07-31T10:09:29.194Z,30.10
2018-07-31T10:11:56.890Z,30.20
2018-07-31T10:14:24.393Z,30.60
2018-07-31T10:16:52.054Z,31.00
2018-07-31T10:19:19.588Z,31.40
2018-07-31T10:21:47.235Z,31.70
2018-07-31T10:24:14.789Z,32.10
2018-07-31T10:26:42.403Z,32.40
2018-07-31T10:29:10.160Z,32.70
2018-07-31T10:31:37.754Z,33.00
2018-07-31T10:34:05.445Z,33.20
2018-07-31T10:36:32.999Z,33.50
2018-07-31T10:39:00.648Z,33.80
2018-07-31T10:41:28.227Z,34.00
2018-07-31T10:43:55.810Z,34.30
2018-07-31T10:46:23.357Z,34.50
2018-07-31T10:48:51.684Z,34.80
2018-07-31T10:51:19.815Z,35.00
2018-07-31T10:56:14.817Z,35.10
2018-07-31T10:58:42.374Z,35.10
2018-07-31T11:01:09.931Z,35.20
2018-07-31T11:06:05.111Z,35.70
2018-07-31T11:11:00.137Z,36.10
2018-07-31T11:13:27.690Z,36.20
2018-07-31T11:15:56.022Z,36.40
2018-07-31T11:18:23.667Z,36.60
2018-07-31T11:20:51.740Z,36.80
2018-07-31T11:23:19.997Z,36.90
2018-07-31T11:25:47.569Z,37.00
2018-07-31T11:28:15.120Z,37.00
2018-07-31T11:30:42.638Z,37.00
2018-07-31T11:33:10.263Z,37.10
2018-07-31T11:35:37.813Z,37.30
2018-07-31T11:38:05.447Z,37.60
2018-07-31T11:40:33.015Z,37.70
2018-07-31T11:43:00.591Z,37.70
2018-07-31T11:45:28.138Z,37.60
2018-07-31T11:47:55.660Z,37.60
2018-07-31T11:50:23.300Z,37.70
2018-07-31T11:52:51.452Z,38.00
2018-07-31T11:55:19.579Z,38.20
2018-07-31T11:57:47.163Z,38.20
2018-07-31T12:00:14.751Z,38.40
2018-07-31T12:02:42.435Z,38.50
2018-07-31T12:05:10.042Z,38.70
2018-07-31T12:07:37.619Z,38.80
2018-07-31T12:10:05.452Z,39.00
2018-07-31T12:12:32.987Z,39.20
2018-07-31T12:15:00.540Z,39.30
2018-07-31T12:17:28.066Z,39.40
2018-07-31T12:19:55.689Z,39.60
2018-07-31T12:22:23.261Z,39.70
2018-07-31T12:24:51.498Z,39.80
2018-07-31T12:29:46.814Z,39.70
2018-07-31T12:32:14.410Z,39.60
2018-07-31T12:34:41.955Z,39.70
2018-07-31T12:37:09.620Z,39.80
2018-07-31T12:39:37.165Z,39.90
2018-07-31T12:42:04.775Z,39.80
2018-07-31T12:44:32.321Z,39.40
2018-07-31T12:46:59.856Z,38.50
2018-07-31T12:49:27.610Z,38.20
2018-07-31T12:51:55.173Z,38.40
2018-07-31T12:54:22.764Z,38.60
2018-07-31T12:56:50.872Z,39.00
2018-07-31T12:59:18.518Z,39.50
2018-07-31T13:01:46.088Z,40.00
2018-07-31T13:04:13.686Z,40.40
2018-07-31T13:06:41.255Z,40.70
2018-07-31T13:09:08.862Z,40.80
2018-07-31T13:11:36.474Z,40.70
2018-07-31T13:14:04.154Z,41.00
2018-07-31T13:18:59.651Z,41.00
2018-07-31T13:21:27.158Z,40.20
2018-07-31T13:23:54.730Z,39.10
2018-07-31T13:26:22.286Z,38.20
2018-07-31T13:28:50.708Z,37.80
2018-07-31T13:31:18.493Z,37.50
2018-07-31T13:33:46.070Z,37.70
2018-07-31T13:36:15.081Z,38.40
2018-07-31T13:38:42.656Z,39.20
2018-07-31T13:41:10.261Z,39.70
2018-07-31T13:43:37.937Z,40.20
2018-07-31T13:46:05.609Z,40.60
2018-07-31T13:48:33.161Z,40.90
2018-07-31T13:51:00.729Z,40.90
2018-07-31T13:53:30.485Z,40.90
2018-07-31T13:58:25.454Z,40.90
2018-07-31T14:00:52.999Z,40.30
2018-07-31T14:03:20.982Z,39.60
2018-07-31T14:05:48.536Z,39.30
2018-07-31T14:08:16.102Z,38.80
2018-07-31T14:13:11.232Z,38.70
2018-07-31T14:15:38.779Z,39.30
2018-07-31T14:18:06.349Z,39.90
2018-07-31T14:25:28.915Z,40.90
2018-07-31T14:27:56.487Z,41.20
2018-07-31T14:30:24.061Z,41.50
2018-07-31T14:32:51.591Z,41.70
2018-07-31T14:35:19.850Z,42.00
2018-07-31T14:40:14.895Z,41.80
2018-07-31T14:42:42.501Z,41.60
2018-07-31T14:45:10.124Z,41.60
2018-07-31T14:47:37.761Z,41.70
2018-07-31T14:50:05.399Z,41.70
2018-07-31T14:52:32.989Z,41.80
2018-07-31T14:55:00.526Z,41.70
2018-07-31T14:59:55.552Z,41.90
2018-07-31T15:02:23.093Z,42.00
2018-07-31T15:04:51.264Z,42.10
2018-07-31T15:09:46.341Z,42.30
2018-07-31T15:12:13.971Z,42.40
2018-07-31T15:14:41.575Z,42.30
2018-07-31T15:17:09.131Z,42.40
2018-07-31T15:19:36.702Z,42.30
2018-07-31T15:22:04.300Z,42.40
2018-07-31T15:24:31.871Z,42.30
2018-07-31T15:26:59.437Z,42.20
2018-07-31T15:29:27.004Z,42.20
2018-07-31T15:31:54.550Z,42.30
2018-07-31T15:34:24.118Z,42.40
2018-07-31T15:36:51.721Z,42.40
2018-07-31T15:39:19.336Z,42.30
2018-07-31T15:41:46.899Z,42.30
2018-07-31T15:44:14.460Z,42.10
2018-07-31T15:46:42.046Z,42.10
2018-07-31T15:51:37.084Z,41.50
2018-07-31T15:54:04.840Z,40.90
2018-07-31T16:01:27.983Z,39.90
2018-07-31T16:03:55.566Z,40.20
2018-07-31T16:06:23.129Z,40.50
2018-07-31T16:11:19.250Z,40.80
2018-07-31T16:13:46.902Z,40.90
2018-07-31T16:16:14.453Z,41.10
2018-07-31T16:18:42.006Z,41.10
2018-07-31T16:21:09.572Z,41.10
2018-07-31T16:23:37.130Z,41.10
2018-07-31T16:26:04.833Z,41.20
2018-07-31T16:28:32.381Z,41.20
2018-07-31T16:30:59.954Z,41.20
2018-07-31T16:33:27.541Z,41.10
2018-07-31T16:35:55.177Z,41.00
2018-07-31T16:38:23.227Z,40.80
2018-07-31T16:40:51.361Z,40.60
2018-07-31T16:43:19.811Z,40.50
2018-07-31T16:45:47.389Z,40.20
2018-07-31T16:48:14.991Z,40.20
2018-07-31T16:50:42.559Z,40.10
2018-07-31T16:55:37.829Z,39.90
2018-07-31T16:58:05.394Z,39.70
2018-07-31T17:03:00.491Z,39.50
2018-07-31T17:05:28.086Z,39.30
2018-07-31T17:07:55.684Z,39.20
2018-07-31T17:10:23.267Z,39.00
2018-07-31T17:12:51.417Z,38.80
2018-07-31T17:15:19.695Z,38.70
2018-07-31T17:17:47.245Z,38.50
2018-07-31T17:20:14.895Z,38.30
2018-07-31T17:22:42.535Z,38.10
2018-07-31T17:25:10.117Z,37.80
2018-07-31T17:27:37.678Z,37.60
2018-07-31T17:30:05.288Z,37.20
2018-07-31T17:32:32.925Z,36.60
2018-07-31T17:35:00.491Z,36.20
2018-07-31T17:39:55.604Z,35.30
2018-07-31T17:42:23.270Z,35.00
2018-07-31T17:44:51.501Z,34.70
2018-07-31T17:47:19.664Z,34.40
2018-07-31T17:49:47.358Z,34.10
2018-07-31T17:52:14.928Z,33.90
2018-07-31T17:54:42.519Z,33.70
2018-07-31T17:57:10.123Z,33.40
2018-07-31T17:59:37.810Z,33.20
2018-07-31T18:02:05.569Z,33.10
2018-07-31T18:04:33.589Z,32.90
2018-07-31T18:07:01.471Z,32.80
2018-07-31T18:09:29.256Z,32.50
2018-07-31T18:11:56.842Z,32.30
2018-07-31T18:14:24.493Z,32.10
2018-07-31T18:19:25.918Z,31.80
2018-07-31T18:21:53.650Z,31.30
2018-07-31T18:24:21.914Z,31.10
2018-07-31T18:26:49.968Z,30.80
2018-07-31T18:29:17.717Z,30.60
2018-07-31T18:31:45.262Z,30.40
2018-07-31T18:34:12.864Z,30.20
2018-07-31T18:39:10.513Z,29.80
2018-07-31T18:41:38.206Z,29.60
2018-07-31T18:44:05.824Z,29.40
2018-07-31T18:46:33.493Z,29.30
2018-07-31T18:49:01.221Z,29.10
2018-07-31T18:51:28.835Z,29.00
2018-07-31T18:53:56.431Z,28.90
2018-07-31T18:56:24.002Z,28.80
2018-07-31T18:58:51.636Z,28.70
2018-07-31T19:01:20.136Z,28.60
2018-07-31T19:03:47.711Z,28.50
2018-07-31T19:06:15.317Z,28.30
2018-07-31T19:08:42.896Z,28.20
2018-07-31T19:11:10.488Z,28.10
2018-07-31T19:13:38.087Z,27.90
2018-07-31T19:16:05.670Z,27.80
2018-07-31T19:18:33.739Z,27.70
2018-07-31T19:21:01.560Z,27.60
2018-07-31T19:23:29.245Z,27.50
2018-07-31T19:25:57.043Z,27.40
2018-07-31T19:30:52.337Z,27.20
2018-07-31T19:33:20.260Z,27.10
2018-07-31T19:35:48.027Z,27.00
2018-07-31T19:38:15.737Z,26.90
2018-07-31T19:40:43.435Z,26.80
2018-07-31T19:43:11.228Z,26.70
2018-07-31T19:45:38.970Z,26.60
2018-07-31T19:48:06.652Z,26.60
2018-07-31T19:50:34.337Z,26.50
2018-07-31T19:53:02.034Z,26.30
2018-07-31T19:55:29.752Z,26.30
2018-07-31T19:57:57.385Z,26.20
2018-07-31T20:00:25.120Z,26.10
2018-07-31T20:02:52.840Z,26.00
2018-07-31T20:05:21.128Z,25.90
2018-07-31T20:07:48.793Z,25.90
2018-07-31T20:10:16.461Z,25.70
2018-07-31T20:12:44.110Z,25.70
2018-07-31T20:15:11.775Z,25.70
2018-07-31T20:17:39.462Z,25.60
2018-07-31T20:20:07.454Z,25.50
2018-07-31T20:22:35.162Z,25.50
2018-07-31T20:25:02.889Z,25.50
2018-07-31T20:27:30.714Z,25.40
2018-07-31T20:29:58.737Z,25.30
2018-07-31T20:32:26.432Z,25.30
2018-07-31T20:37:21.635Z,25.20
2018-07-31T20:39:50.334Z,25.10
2018-07-31T20:42:17.992Z,25.00
2018-07-31T20:47:13.100Z,24.80
2018-07-31T20:49:40.774Z,24.80
2018-07-31T20:52:08.424Z,24.70
2018-07-31T20:54:36.013Z,24.60
2018-07-31T20:57:03.622Z,24.60
2018-07-31T21:01:58.693Z,24.40
2018-07-31T21:04:26.264Z,24.40
2018-07-31T21:06:53.915Z,24.40
2018-07-31T21:09:21.605Z,24.30
2018-07-31T21:11:50.190Z,24.30
2018-07-31T21:14:18.095Z,24.20
2018-07-31T21:16:45.679Z,24.20
2018-07-31T21:19:13.265Z,24.20
2018-07-31T21:21:40.876Z,24.10
2018-07-31T21:24:08.565Z,24.10
2018-07-31T21:26:36.141Z,24.10
2018-07-31T21:29:03.727Z,24.00
2018-07-31T21:31:31.355Z,24.00
2018-07-31T21:33:58.943Z,23.90
2018-07-31T21:36:26.582Z,23.90
2018-07-31T21:38:54.125Z,23.90
2018-07-31T21:41:21.701Z,23.80
2018-07-31T21:43:49.762Z,23.70
2018-07-31T21:46:17.359Z,23.70
2018-07-31T21:51:12.644Z,23.60
2018-07-31T21:53:40.197Z,23.70
2018-07-31T21:56:07.756Z,23.60
2018-07-31T21:58:35.663Z,23.60
2018-07-31T22:01:07.522Z,23.60
2018-07-31T22:03:37.849Z,23.50
2018-07-31T22:06:05.959Z,23.40
2018-07-31T22:08:34.160Z,23.40
2018-07-31T22:11:01.724Z,23.40
2018-07-31T22:13:29.922Z,23.40
2018-07-31T22:15:57.621Z,23.40
2018-07-31T22:18:25.203Z,23.40
2018-07-31T22:20:52.780Z,23.40
2018-07-31T22:23:21.088Z,23.40
2018-07-31T22:25:48.646Z,23.40
2018-07-31T22:30:43.676Z,23.40
2018-07-31T22:33:11.454Z,23.30
2018-07-31T22:35:39.030Z,23.20
2018-07-31T22:38:07.407Z,23.20
2018-07-31T22:40:34.972Z,23.20
2018-07-31T22:43:02.566Z,23.10
2018-07-31T22:45:30.908Z,23.10
2018-07-31T22:47:58.547Z,23.10
2018-07-31T22:50:26.133Z,23.00
2018-07-31T22:52:53.689Z,23.00
2018-07-31T22:55:21.577Z,23.00
2018-07-31T22:57:49.817Z,22.90
2018-07-31T23:00:17.405Z,22.90
2018-07-31T23:02:44.977Z,23.00
2018-07-31T23:05:12.891Z,22.90
2018-07-31T23:07:40.468Z,23.00
2018-07-31T23:10:08.013Z,22.90
2018-07-31T23:12:35.561Z,22.90
2018-07-31T23:15:03.542Z,22.90
2018-07-31T23:17:31.565Z,22.80
2018-07-31T23:20:01.775Z,22.80
2018-07-31T23:22:42.237Z,22.70
2018-07-31T23:25:09.826Z,22.70
2018-07-31T23:30:06.371Z,22.70
2018-07-31T23:32:34.187Z,22.60
2018-07-31T23:35:01.807Z,22.60
2018-07-31T23:37:30.545Z,22.60
2018-07-31T23:39:58.857Z,22.50
2018-07-31T23:42:26.399Z,22.50
2018-07-31T23:47:21.847Z,22.40
2018-07-31T23:49:49.781Z,22.40
2018-07-31T23:52:17.390Z,22.40
2018-07-31T23:54:44.980Z,22.30
2018-07-31T23:57:12.519Z,22.30
2018-07-31T23:59:40.063Z,22.20
